Archival Weather

Aeroparque Jorge Newbery

Buenos Aires, Argentina (SABE)

Report from: Thursday, September 21, 2023 7:00 PM -03
Current time: Friday, July 19, 2024 12:33 AM -03

Current weather – Weather history – Daily summaries
Weather forecast

Temperature19.0°C (66.2°F)
Dew point16.0°C (60.8°F)
Winds 3 kts (1.5 m/s, 3.5 mph) Vrb
Winds variableWinds variable from Southeast (130°) to South-Southwest (210°)
Visibility3.7 mi. (6 km)
Clouds Scattered clouds 3,000 ft. (914 m)
Ceiling: Broken clouds 7,000 ft. (2,134 m)
Altimeter29.80 in.Hg (1009 mB)
Relative humidity83 %
Density altitude863 ft. (263 m)
Remarks Corrected report
No significant changes expected in the next two hours
Flight conditions Marginal Visual Meteorological Conditions
Raw dataCOR SABE 212200Z 17003KT 130V210 6000 SCT030 BKN070 19/16 Q1009 NOSIG RMK PP000
An error has occurred. This application may no longer respond until reloaded. Reload 🗙